This is the latest recevied weather packets stored in our database for station/object G8SIB-9. If no packets are shown the sender has not sent any weather packets the latest 10 day(s).
| Time | Temp. | Humidity | Pressure | Rain* | Wind** | Luminosity | Snow |
|---|---|---|---|---|---|---|---|
| 1778169597 | 13.89° C | 53% | 1013.3 hPa | 0 mm | - | - | - |
| 1778168997 | 13.89° C | 55% | 1013.4 hPa | 0 mm | - | - | - |
| 1778168397 | 13.89° C | 56% | 1013.4 hPa | 0 mm | - | - | - |
| 1778167795 | 13.89° C | 56% | 1013.4 hPa | 0 mm | - | - | - |
| 1778167194 | 13.89° C | 56% | 1013.4 hPa | 0 mm | - | - | - |
| 1778166594 | 13.33° C | 56% | 1013.3 hPa | 0 mm | - | - | - |
| 1778165994 | 13.89° C | 56% | 1013.3 hPa | 0 mm | - | - | - |
| 1778165392 | 13.89° C | 55% | 1013.3 hPa | 0 mm | - | - | - |
| 1778164792 | 13.89° C | 53% | 1013.3 hPa | 0 mm | - | - | - |
| 1778164191 | 14.44° C | 52% | 1013.4 hPa | 0 mm | - | - | - |
| 1778163590 | 15° C | 50% | 1013.4 hPa | 0 mm | - | - | - |
| 1778162989 | 15° C | 50% | 1013.5 hPa | 0 mm | - | - | - |
| 1778162388 | 15.56° C | 49% | 1013.4 hPa | 0 mm | - | - | - |
| 1778161787 | 15.56° C | 47% | 1013.4 hPa | 0 mm | - | - | - |
| 1778161187 | 15.56° C | 45% | 1013.4 hPa | 0 mm | - | - | - |
| 1778160585 | 16.11° C | 44% | 1013.4 hPa | 0 mm | - | - | - |
| 1778159985 | 16.67° C | 45% | 1013.5 hPa | 0 mm | - | - | - |
| 1778159384 | 15.56° C | 47% | 1013.5 hPa | 0 mm | - | - | - |
| 1778158783 | 16.67° C | 45% | 1013.4 hPa | 0 mm | - | - | - |
| 1778158182 | 16.11° C | 45% | 1013.5 hPa | 0 mm | - | - | - |
| 1778157581 | 16.67° C | 44% | 1013.4 hPa | 0 mm | - | - | - |
| 1778156980 | 16.11° C | 45% | 1013.4 hPa | 0 mm | - | - | - |
| 1778156380 | 16.11° C | 44% | 1013.4 hPa | 0 mm | - | - | - |
| 1778155780 | 15.56° C | 47% | 1013.5 hPa | 0 mm | - | - | - |
| 1778155179 | 16.11° C | 45% | 1013.5 hPa | 0 mm | - | - | - |
* Rain latest hour (hover to see other rain measurements)
** Current wind speed in m/s (hover to see current wind gust speed)